createdAt,value
2022-12-17T00:00:39.402Z,100664.19
2022-12-17T00:05:59.798Z,100678.78
2022-12-17T00:11:19.921Z,100671.59
2022-12-17T00:16:41.395Z,100680.28
2022-12-17T00:22:01.831Z,100683.25
2022-12-17T00:27:22.396Z,100692.66
2022-12-17T00:32:43.875Z,100702.03
2022-12-17T00:38:05.122Z,100701.81
2022-12-17T00:43:27.072Z,100704.91
2022-12-17T00:48:48.955Z,100704.00
2022-12-17T00:54:09.593Z,100718.63
2022-12-17T00:59:29.666Z,100718.63
2022-12-17T01:04:52.166Z,100723.78
2022-12-17T01:10:12.589Z,100724.84
2022-12-17T01:15:32.931Z,100727.81
2022-12-17T01:20:54.612Z,100733.94
2022-12-17T01:26:17.380Z,100733.97
2022-12-17T01:31:37.888Z,100745.94
2022-12-17T01:36:59.509Z,100738.22
2022-12-17T01:42:19.604Z,100750.06
2022-12-17T01:47:40.064Z,100753.47
2022-12-17T01:53:01.673Z,100754.78
2022-12-17T01:58:22.293Z,100751.06
2022-12-17T02:03:42.602Z,100754.38
2022-12-17T02:09:15.745Z,100762.81
2022-12-17T02:14:41.543Z,100757.91
2022-12-17T02:20:05.595Z,100763.34
2022-12-17T02:25:34.927Z,100764.59
2022-12-17T02:30:57.240Z,100762.03
2022-12-17T02:36:21.322Z,100770.22
2022-12-17T02:41:43.954Z,100775.59
2022-12-17T02:47:06.274Z,100784.50
2022-12-17T02:52:31.929Z,100785.88
2022-12-17T02:57:55.093Z,100787.44
2022-12-17T03:03:17.168Z,100794.97
2022-12-17T03:08:37.825Z,100784.56
2022-12-17T03:13:57.908Z,100786.31
2022-12-17T03:19:20.400Z,100800.56
2022-12-17T03:24:40.690Z,100804.47
2022-12-17T03:30:00.876Z,100808.81
2022-12-17T03:35:22.751Z,100799.34
2022-12-17T03:40:48.378Z,100801.41
2022-12-17T03:46:10.728Z,100805.66
2022-12-17T03:51:32.165Z,100806.25
2022-12-17T03:56:53.330Z,100812.28
2022-12-17T04:02:13.644Z,100813.47
2022-12-17T04:07:35.514Z,100817.50
2022-12-17T04:12:55.638Z,100832.38
2022-12-17T04:18:15.835Z,100841.22
2022-12-17T04:23:37.870Z,100849.88
2022-12-17T04:28:58.141Z,100852.34
2022-12-17T04:34:18.396Z,100866.03
2022-12-17T04:39:39.745Z,100860.56
2022-12-17T04:45:11.632Z,100863.75
2022-12-17T04:50:31.900Z,100870.69
2022-12-17T04:55:53.712Z,100873.44
2022-12-17T05:01:13.997Z,100873.63
2022-12-17T05:06:34.724Z,100893.59
2022-12-17T05:11:56.517Z,100905.63
2022-12-17T05:17:16.623Z,100904.69
2022-12-17T05:22:36.720Z,100906.97
2022-12-17T05:27:58.225Z,100911.09
2022-12-17T05:33:18.812Z,100925.59
2022-12-17T05:38:39.196Z,100914.41
2022-12-17T05:44:01.114Z,100926.97
2022-12-17T05:49:21.179Z,100932.13
2022-12-17T05:54:55.864Z,100939.09
2022-12-17T06:00:17.563Z,100940.09
2022-12-17T06:05:38.317Z,100942.75
2022-12-17T06:10:58.632Z,100948.88
2022-12-17T06:16:20.098Z,100954.09
2022-12-17T06:21:40.746Z,100955.13
2022-12-17T06:27:01.163Z,100975.63
2022-12-17T06:32:23.099Z,100973.66
2022-12-17T06:37:43.633Z,100976.13
2022-12-17T06:43:11.342Z,100981.28
2022-12-17T06:48:32.711Z,100992.44
2022-12-17T06:53:53.455Z,100995.78
2022-12-17T06:59:13.578Z,101012.78
2022-12-17T07:04:35.013Z,101006.28
2022-12-17T07:09:55.055Z,101011.38
2022-12-17T07:15:17.610Z,101018.50
2022-12-17T07:20:39.151Z,101021.88
2022-12-17T07:26:00.102Z,101037.44
2022-12-17T07:31:20.801Z,101042.69
2022-12-17T07:36:42.311Z,101054.56
2022-12-17T07:42:17.456Z,101054.31
2022-12-17T07:47:37.735Z,101058.06
2022-12-17T07:52:59.363Z,101060.03
2022-12-17T07:58:20.950Z,101060.88
2022-12-17T08:03:41.719Z,101062.66
2022-12-17T08:09:03.513Z,101080.97
2022-12-17T08:14:23.546Z,101091.28
2022-12-17T08:19:43.660Z,101111.91
2022-12-17T08:25:05.299Z,101116.41
2022-12-17T08:30:26.259Z,101119.38
2022-12-17T08:35:46.853Z,101130.50
2022-12-17T08:41:08.344Z,101139.03
2022-12-17T08:46:28.570Z,101146.66
2022-12-17T08:51:49.122Z,101153.47
2022-12-17T08:57:10.442Z,101157.59
2022-12-17T09:02:31.184Z,101161.72
2022-12-17T09:07:51.620Z,101159.78
2022-12-17T09:13:13.048Z,101170.97
2022-12-17T09:18:37.173Z,101168.13
2022-12-17T09:23:57.767Z,101171.66
2022-12-17T09:29:19.229Z,101171.97
2022-12-17T09:34:39.396Z,101175.78
2022-12-17T09:39:59.611Z,101172.38
2022-12-17T09:45:24.639Z,101178.94
2022-12-17T09:50:45.221Z,101180.66
2022-12-17T09:56:07.453Z,101182.94
2022-12-17T10:01:35.338Z,101195.56
2022-12-17T10:07:04.233Z,101195.66
2022-12-17T10:12:31.875Z,101205.06
2022-12-17T10:17:53.705Z,101196.41
2022-12-17T10:23:14.656Z,101201.31
2022-12-17T10:28:37.313Z,101203.34
2022-12-17T10:33:59.858Z,101205.22
2022-12-17T10:39:20.284Z,101214.06
2022-12-17T10:44:51.227Z,101216.56
2022-12-17T10:50:17.551Z,101214.56
2022-12-17T10:55:41.386Z,101216.75
2022-12-17T11:01:01.633Z,101224.75
2022-12-17T11:06:24.297Z,101232.22
2022-12-17T11:11:44.438Z,101245.38
2022-12-17T11:17:07.933Z,101248.19
2022-12-17T11:22:40.117Z,101249.88
2022-12-17T11:28:03.227Z,101240.47
2022-12-17T11:33:28.100Z,101252.19
2022-12-17T11:38:53.231Z,101242.19
2022-12-17T11:44:21.414Z,101247.06
2022-12-17T11:49:48.127Z,101245.63
2022-12-17T11:55:15.107Z,101249.41
2022-12-17T12:00:38.095Z,101253.28
2022-12-17T12:06:13.649Z,101249.53
2022-12-17T12:11:44.703Z,101254.28
2022-12-17T12:17:10.786Z,101248.25
2022-12-17T12:22:34.723Z,101259.63
2022-12-17T12:28:00.266Z,101263.81
2022-12-17T12:33:32.222Z,101272.66
2022-12-17T12:38:56.238Z,101273.69
2022-12-17T12:44:19.755Z,101270.44
2022-12-17T12:49:43.435Z,101277.25
2022-12-17T12:55:12.050Z,101282.66
2022-12-17T13:00:58.832Z,101297.69
2022-12-17T13:06:01.637Z,101292.63
2022-12-17T13:11:28.505Z,101298.50
2022-12-17T13:16:42.524Z,101307.72
2022-12-17T13:21:45.492Z,101312.13
2022-12-17T13:26:48.214Z,101307.88
2022-12-17T13:32:03.651Z,101312.19
2022-12-17T13:37:08.785Z,101321.94
2022-12-17T13:42:26.593Z,101318.16
2022-12-17T13:47:32.417Z,101328.84
2022-12-17T13:52:35.120Z,101333.78
2022-12-17T13:57:38.779Z,101348.31
2022-12-17T14:02:43.474Z,101352.28
2022-12-17T14:07:46.438Z,101360.91
2022-12-17T14:12:49.962Z,101368.47
2022-12-17T14:17:55.096Z,101372.84
2022-12-17T14:23:01.562Z,101376.81
2022-12-17T14:28:06.389Z,101374.28
2022-12-17T14:33:29.221Z,101374.91
2022-12-17T14:38:48.167Z,101373.22
2022-12-17T14:43:57.041Z,101381.13
2022-12-17T14:49:02.327Z,101389.59
2022-12-17T14:54:18.632Z,101397.97
2022-12-17T14:59:32.186Z,101404.94
2022-12-17T15:04:38.294Z,101399.53
2022-12-17T15:09:42.037Z,101403.19
2022-12-17T15:14:45.303Z,101399.13
2022-12-17T15:19:55.776Z,101406.91
2022-12-17T15:24:59.013Z,101409.19
2022-12-17T15:30:01.739Z,101410.91
2022-12-17T15:35:06.655Z,101414.63
2022-12-17T15:40:12.005Z,101419.09
2022-12-17T15:45:14.793Z,101420.22
2022-12-17T15:50:19.847Z,101425.28
2022-12-17T15:55:22.598Z,101424.50
2022-12-17T16:00:25.418Z,101431.75
2022-12-17T16:05:29.547Z,101439.72
2022-12-17T16:10:32.514Z,101444.19
2022-12-17T16:15:35.263Z,101452.16
2022-12-17T16:20:39.424Z,101461.09
2022-12-17T16:25:42.201Z,101461.56
2022-12-17T16:30:44.907Z,101458.34
2022-12-17T16:35:52.895Z,101459.22
2022-12-17T16:40:57.160Z,101461.88
2022-12-17T16:45:59.954Z,101467.25
2022-12-17T16:51:16.346Z,101462.97
2022-12-17T16:56:21.627Z,101476.22
2022-12-17T17:01:26.671Z,101469.63
2022-12-17T17:06:33.899Z,101476.84
2022-12-17T17:11:36.988Z,101483.06
2022-12-17T17:16:40.021Z,101488.94
2022-12-17T17:21:49.813Z,101489.91
2022-12-17T17:26:53.961Z,101489.31
2022-12-17T17:32:13.550Z,101495.81
2022-12-17T17:37:18.435Z,101502.06
2022-12-17T17:42:21.210Z,101494.31
2022-12-17T17:47:23.970Z,101502.88
2022-12-17T17:52:28.040Z,101506.34
2022-12-17T17:57:30.938Z,101517.91
2022-12-17T18:02:33.822Z,101521.19
2022-12-17T18:07:38.081Z,101517.19
2022-12-17T18:12:58.548Z,101526.94
2022-12-17T18:18:01.356Z,101526.94
2022-12-17T18:23:05.932Z,101534.63
2022-12-17T18:28:08.722Z,101543.44
2022-12-17T18:33:11.479Z,101549.28
2022-12-17T18:38:15.651Z,101543.06
2022-12-17T18:43:25.356Z,101549.88
2022-12-17T18:48:28.206Z,101555.09
2022-12-17T18:53:33.524Z,101558.78
2022-12-17T18:58:36.613Z,101567.63
2022-12-17T19:03:39.452Z,101567.78
2022-12-17T19:08:43.783Z,101570.47
2022-12-17T19:13:50.827Z,101570.78
2022-12-17T19:18:54.815Z,101578.81
2022-12-17T19:24:01.285Z,101590.16
2022-12-17T19:29:05.316Z,101580.53
2022-12-17T19:34:08.983Z,101579.81
2022-12-17T19:39:15.138Z,101593.53
2022-12-17T19:44:20.058Z,101591.66
2022-12-17T19:49:23.003Z,101606.50
2022-12-17T19:54:27.309Z,101598.09
2022-12-17T19:59:30.078Z,101605.47
2022-12-17T20:04:33.091Z,101605.63
2022-12-17T20:09:37.147Z,101615.22
2022-12-17T20:14:40.342Z,101621.22
2022-12-17T20:19:43.619Z,101619.38
2022-12-17T20:24:47.983Z,101628.25
2022-12-17T20:29:50.744Z,101625.72
2022-12-17T20:34:53.650Z,101625.59
2022-12-17T20:39:57.735Z,101624.66
2022-12-17T20:45:00.512Z,101623.78
2022-12-17T20:50:03.452Z,101616.22
2022-12-17T20:55:08.514Z,101624.75
2022-12-17T21:00:12.593Z,101628.16
2022-12-17T21:05:15.320Z,101627.19
2022-12-17T21:10:19.821Z,101634.09
2022-12-17T21:15:22.824Z,101641.09
2022-12-17T21:20:25.676Z,101658.13
2022-12-17T21:25:30.522Z,101664.97
2022-12-17T21:30:36.942Z,101654.97
2022-12-17T21:35:39.686Z,101668.59
2022-12-17T21:40:43.853Z,101655.66
2022-12-17T21:45:46.939Z,101657.34
2022-12-17T21:50:49.695Z,101676.06
2022-12-17T21:55:54.904Z,101683.88
2022-12-17T22:00:58.552Z,101690.72
2022-12-17T22:06:06.855Z,101682.16
2022-12-17T22:11:12.341Z,101682.09
2022-12-17T22:16:16.529Z,101689.66
2022-12-17T22:21:19.363Z,101693.00
2022-12-17T22:26:24.165Z,101692.22
2022-12-17T22:31:47.640Z,101709.47
2022-12-17T22:39:55.445Z,101714.75
2022-12-17T22:44:36.594Z,101718.13
2022-12-17T22:47:55.805Z,101717.16
2022-12-17T22:52:58.589Z,101711.25
2022-12-17T22:58:03.161Z,101719.81
2022-12-17T23:03:06.512Z,101719.81
2022-12-17T23:08:09.256Z,101725.69
2022-12-17T23:13:13.373Z,101720.69
2022-12-17T23:18:16.114Z,101715.56
2022-12-17T23:23:18.896Z,101724.97
2022-12-17T23:28:22.922Z,101717.50
2022-12-17T23:33:25.661Z,101740.47
2022-12-17T23:38:28.434Z,101737.00
2022-12-17T23:43:35.681Z,101735.31
2022-12-17T23:48:45.144Z,101741.31
2022-12-17T23:53:48.459Z,101744.66
2022-12-17T23:58:56.236Z,101751.47
